createdAt,value
2022-12-31T00:00:04.475Z,45.09
2022-12-31T00:01:04.411Z,45.09
2022-12-31T00:02:04.546Z,45.09
2022-12-31T00:03:04.518Z,45.09
2022-12-31T00:04:04.413Z,45.09
2022-12-31T00:05:04.453Z,45.18
2022-12-31T00:06:04.353Z,45.18
2022-12-31T00:07:04.331Z,45.18
2022-12-31T00:08:04.347Z,45.21
2022-12-31T00:09:04.314Z,45.18
2022-12-31T00:10:04.485Z,45.10
2022-12-31T00:11:04.314Z,45.18
2022-12-31T00:12:04.296Z,45.09
2022-12-31T00:13:04.275Z,45.09
2022-12-31T00:14:04.281Z,45.21
2022-12-31T00:15:04.254Z,45.21
2022-12-31T00:16:09.970Z,45.21
2022-12-31T00:17:04.331Z,45.18
2022-12-31T00:18:04.220Z,45.31
2022-12-31T00:19:04.241Z,45.31
2022-12-31T00:20:04.200Z,45.31
2022-12-31T00:21:04.208Z,45.31
2022-12-31T00:22:04.225Z,45.31
2022-12-31T00:23:04.175Z,45.31
2022-12-31T00:24:04.167Z,45.31
2022-12-31T00:25:04.148Z,45.31
2022-12-31T00:26:04.136Z,45.31
2022-12-31T00:27:04.139Z,45.31
2022-12-31T00:28:04.162Z,45.31
2022-12-31T00:29:04.107Z,45.31
2022-12-31T00:30:04.942Z,45.31
2022-12-31T00:31:04.189Z,45.31
2022-12-31T00:32:04.073Z,45.31
2022-12-31T00:33:04.076Z,45.31
2022-12-31T00:34:04.190Z,45.31
2022-12-31T00:35:04.034Z,45.31
2022-12-31T00:36:04.034Z,45.31
2022-12-31T00:37:04.056Z,45.31
2022-12-31T00:38:04.031Z,45.31
2022-12-31T00:39:03.997Z,45.31
2022-12-31T00:40:04.241Z,45.31
2022-12-31T00:41:03.983Z,45.31
2022-12-31T00:42:03.985Z,45.31
2022-12-31T00:43:03.966Z,45.31
2022-12-31T00:44:03.947Z,45.31
2022-12-31T00:45:03.933Z,45.31
2022-12-31T00:46:04.209Z,45.31
2022-12-31T00:47:03.917Z,45.31
2022-12-31T00:48:03.909Z,45.31
2022-12-31T00:49:03.898Z,45.41
2022-12-31T00:50:03.874Z,45.41
2022-12-31T00:51:03.863Z,45.31
2022-12-31T00:52:04.039Z,45.21
2022-12-31T00:53:03.871Z,45.21
2022-12-31T00:54:03.849Z,45.10
2022-12-31T00:55:03.826Z,45.10
2022-12-31T00:56:03.825Z,45.01
2022-12-31T00:57:03.798Z,45.01
2022-12-31T00:58:03.845Z,45.01
2022-12-31T00:59:03.781Z,44.91
2022-12-31T01:00:03.789Z,45.01
2022-12-31T01:01:03.852Z,45.10
2022-12-31T01:02:03.879Z,45.01
2022-12-31T01:03:03.826Z,45.10
2022-12-31T01:04:03.772Z,45.01
2022-12-31T01:05:03.739Z,45.01
2022-12-31T01:06:03.715Z,45.10
2022-12-31T01:07:03.711Z,45.10
2022-12-31T01:08:03.711Z,45.10
2022-12-31T01:09:03.677Z,45.10
2022-12-31T01:10:03.721Z,45.10
2022-12-31T01:11:03.673Z,45.01
2022-12-31T01:12:03.646Z,45.10
2022-12-31T01:13:03.636Z,45.01
2022-12-31T01:14:03.634Z,45.01
2022-12-31T01:15:03.614Z,45.01
2022-12-31T01:16:03.762Z,45.01
2022-12-31T01:17:03.602Z,45.01
2022-12-31T01:18:03.599Z,45.01
2022-12-31T01:19:03.577Z,44.91
2022-12-31T01:20:03.561Z,45.01
2022-12-31T01:21:03.547Z,45.10
2022-12-31T01:22:03.574Z,45.01
2022-12-31T01:23:03.527Z,45.01
2022-12-31T01:24:03.532Z,44.91
2022-12-31T01:25:03.501Z,44.91
2022-12-31T01:26:03.501Z,45.01
2022-12-31T01:27:03.483Z,45.01
2022-12-31T01:28:03.532Z,45.01
2022-12-31T01:29:03.465Z,45.01
2022-12-31T01:30:03.460Z,44.91
2022-12-31T01:31:03.484Z,44.91
2022-12-31T01:32:03.436Z,44.91
2022-12-31T01:33:03.424Z,44.91
2022-12-31T01:34:03.454Z,44.91
2022-12-31T01:35:03.400Z,44.91
2022-12-31T01:36:03.407Z,44.91
2022-12-31T01:37:03.376Z,44.91
2022-12-31T01:38:03.378Z,44.81
2022-12-31T01:39:03.370Z,44.91
2022-12-31T01:40:03.479Z,44.91
2022-12-31T01:41:03.354Z,44.91
2022-12-31T01:42:03.323Z,44.91
2022-12-31T01:43:03.323Z,44.81
2022-12-31T01:44:03.310Z,44.81
2022-12-31T01:45:03.296Z,44.91
2022-12-31T01:46:03.396Z,44.81
2022-12-31T01:47:03.267Z,44.81
2022-12-31T01:48:03.271Z,44.81
2022-12-31T01:49:03.260Z,44.81
2022-12-31T01:50:03.250Z,44.81
2022-12-31T01:51:03.227Z,44.81
2022-12-31T01:52:03.263Z,44.81
2022-12-31T01:53:03.209Z,44.81
2022-12-31T01:54:03.203Z,44.71
2022-12-31T01:55:03.209Z,44.71
2022-12-31T01:56:03.192Z,44.71
2022-12-31T01:57:03.170Z,44.71
2022-12-31T01:58:03.199Z,44.71
2022-12-31T01:59:03.169Z,44.71
2022-12-31T02:00:03.136Z,44.71
2022-12-31T02:01:03.160Z,44.81
2022-12-31T02:02:03.272Z,44.71
2022-12-31T02:03:03.118Z,44.71
2022-12-31T02:04:03.236Z,44.60
2022-12-31T02:05:03.095Z,44.51
2022-12-31T02:06:03.078Z,44.51
2022-12-31T02:07:03.079Z,44.51
2022-12-31T02:08:03.068Z,44.40
2022-12-31T02:09:03.047Z,44.40
2022-12-31T02:10:03.070Z,44.40
2022-12-31T02:11:03.027Z,44.40
2022-12-31T02:12:03.009Z,44.40
2022-12-31T02:13:02.997Z,44.31
2022-12-31T02:14:02.999Z,44.31
2022-12-31T02:15:02.997Z,44.31
2022-12-31T02:16:03.048Z,44.20
2022-12-31T02:17:02.969Z,44.20
2022-12-31T02:18:02.949Z,44.20
2022-12-31T02:19:02.940Z,44.20
2022-12-31T02:20:02.951Z,44.20
2022-12-31T02:21:02.931Z,44.10
2022-12-31T02:22:03.060Z,44.10
2022-12-31T02:23:02.891Z,44.10
2022-12-31T02:24:02.895Z,44.10
2022-12-31T02:25:02.955Z,44.00
2022-12-31T02:26:02.869Z,44.00
2022-12-31T02:27:02.849Z,44.00
2022-12-31T02:28:02.980Z,44.00
2022-12-31T02:29:02.840Z,44.00
2022-12-31T02:30:02.815Z,44.00
2022-12-31T02:31:02.861Z,43.90
2022-12-31T02:32:02.804Z,44.00
2022-12-31T02:33:03.046Z,43.90
2022-12-31T02:34:02.908Z,43.90
2022-12-31T02:35:02.766Z,43.90
2022-12-31T02:36:02.760Z,43.90
2022-12-31T02:37:02.767Z,43.90
2022-12-31T02:38:02.726Z,43.90
2022-12-31T02:39:02.730Z,43.90
2022-12-31T02:40:02.885Z,43.80
2022-12-31T02:41:02.703Z,43.80
2022-12-31T02:42:02.690Z,43.80
2022-12-31T02:43:02.711Z,43.80
2022-12-31T02:44:02.673Z,43.80
2022-12-31T02:45:02.676Z,43.80
2022-12-31T02:46:03.006Z,43.80
2022-12-31T02:47:02.666Z,43.80
2022-12-31T02:48:02.625Z,43.70
2022-12-31T02:49:02.637Z,43.70
2022-12-31T02:50:02.633Z,43.80
2022-12-31T02:51:02.624Z,43.70
2022-12-31T02:52:02.770Z,43.70
2022-12-31T02:53:02.613Z,43.70
2022-12-31T02:54:02.571Z,43.70
2022-12-31T02:55:02.634Z,43.80
2022-12-31T02:56:02.555Z,43.70
2022-12-31T02:57:02.533Z,43.70
2022-12-31T02:58:02.665Z,43.70
2022-12-31T02:59:02.521Z,43.70
2022-12-31T03:00:02.495Z,43.70
2022-12-31T03:01:02.741Z,43.60
2022-12-31T03:02:02.556Z,43.62
2022-12-31T03:03:02.511Z,43.60
2022-12-31T03:04:02.668Z,43.60
2022-12-31T03:05:02.484Z,43.62
2022-12-31T03:06:02.497Z,43.62
2022-12-31T03:07:02.521Z,43.62
2022-12-31T03:08:02.466Z,43.60
2022-12-31T03:09:02.494Z,43.60
2022-12-31T03:10:02.540Z,43.60
2022-12-31T03:11:02.555Z,43.62
2022-12-31T03:12:02.376Z,43.62
2022-12-31T03:13:02.396Z,43.60
2022-12-31T03:14:02.362Z,43.62
2022-12-31T03:15:02.339Z,43.62
2022-12-31T03:16:02.396Z,43.62
2022-12-31T03:17:02.326Z,43.62
2022-12-31T03:18:02.323Z,43.62
2022-12-31T03:19:02.298Z,43.62
2022-12-31T03:20:02.306Z,43.62
2022-12-31T03:21:02.301Z,43.62
2022-12-31T03:22:02.391Z,43.72
2022-12-31T03:23:02.261Z,43.62
2022-12-31T03:24:02.278Z,43.62
2022-12-31T03:25:02.283Z,43.62
2022-12-31T03:26:02.220Z,43.62
2022-12-31T03:27:02.229Z,43.62
2022-12-31T03:28:02.262Z,43.62
2022-12-31T03:29:02.208Z,43.62
2022-12-31T03:30:02.185Z,43.62
2022-12-31T03:31:02.223Z,43.62
2022-12-31T03:32:02.162Z,43.62
2022-12-31T03:33:02.154Z,43.62
2022-12-31T03:34:02.284Z,43.62
2022-12-31T03:35:02.129Z,43.62
2022-12-31T03:36:02.124Z,43.62
2022-12-31T03:37:02.115Z,43.62
2022-12-31T03:38:02.100Z,43.62
2022-12-31T03:39:02.087Z,43.62
2022-12-31T03:40:02.250Z,43.62
2022-12-31T03:41:02.061Z,43.62
2022-12-31T03:42:02.059Z,43.62
2022-12-31T03:43:02.045Z,43.62
2022-12-31T03:44:02.036Z,43.62
2022-12-31T03:45:02.035Z,43.62
2022-12-31T03:46:02.129Z,43.52
2022-12-31T03:47:02.028Z,43.62
2022-12-31T03:48:02.001Z,43.62
2022-12-31T03:49:01.988Z,43.52
2022-12-31T03:50:01.967Z,43.52
2022-12-31T03:51:01.967Z,43.52
2022-12-31T03:52:02.201Z,43.52
2022-12-31T03:53:01.959Z,43.52
2022-12-31T03:54:01.929Z,43.52
2022-12-31T03:55:01.930Z,43.52
2022-12-31T03:56:01.914Z,43.52
2022-12-31T03:57:01.898Z,43.52
2022-12-31T03:58:02.016Z,43.52
2022-12-31T03:59:01.879Z,43.42
2022-12-31T04:00:01.867Z,43.42
2022-12-31T04:01:02.005Z,43.52
2022-12-31T04:02:01.998Z,43.42
2022-12-31T04:03:01.871Z,43.42
2022-12-31T04:04:01.944Z,43.42
2022-12-31T04:05:01.858Z,43.42
2022-12-31T04:06:01.803Z,43.42
2022-12-31T04:07:01.839Z,43.42
2022-12-31T04:08:01.791Z,43.42
2022-12-31T04:09:01.780Z,43.42
2022-12-31T04:10:01.801Z,43.42
2022-12-31T04:11:01.761Z,43.42
2022-12-31T04:12:01.738Z,43.32
2022-12-31T04:13:01.738Z,43.32
2022-12-31T04:14:01.738Z,43.32
2022-12-31T04:15:01.715Z,43.32
2022-12-31T04:16:01.763Z,43.32
2022-12-31T04:17:01.699Z,43.32
2022-12-31T04:18:01.677Z,43.32
2022-12-31T04:19:01.704Z,43.32
2022-12-31T04:20:01.662Z,43.22
2022-12-31T04:21:01.650Z,43.32
2022-12-31T04:22:01.774Z,43.22
2022-12-31T04:23:01.638Z,43.22
2022-12-31T04:24:01.611Z,43.22
2022-12-31T04:25:01.610Z,43.22
2022-12-31T04:26:01.610Z,43.22
2022-12-31T04:27:07.298Z,43.22
2022-12-31T04:28:01.702Z,43.22
2022-12-31T04:29:01.567Z,43.12
2022-12-31T04:30:01.549Z,43.22
2022-12-31T04:31:01.542Z,43.12
2022-12-31T04:32:01.687Z,43.12
2022-12-31T04:33:01.527Z,43.12
2022-12-31T04:34:01.634Z,43.12
2022-12-31T04:35:01.507Z,43.12
2022-12-31T04:36:01.491Z,43.12
2022-12-31T04:37:01.472Z,43.12
2022-12-31T04:38:01.470Z,43.12
2022-12-31T04:39:01.467Z,43.12
2022-12-31T04:40:05.880Z,43.12
2022-12-31T04:41:01.451Z,43.12
2022-12-31T04:42:01.420Z,43.12
2022-12-31T04:43:01.416Z,43.12
2022-12-31T04:44:01.424Z,43.12
2022-12-31T04:45:01.394Z,43.12
2022-12-31T04:46:01.426Z,43.12
2022-12-31T04:47:01.383Z,43.02
2022-12-31T04:48:01.352Z,43.12
2022-12-31T04:49:01.352Z,43.02
2022-12-31T04:50:01.356Z,43.02
2022-12-31T04:51:01.328Z,43.02
2022-12-31T04:52:01.334Z,43.02
2022-12-31T04:53:01.322Z,43.02
2022-12-31T04:54:01.294Z,43.02
2022-12-31T04:55:01.285Z,43.02
2022-12-31T04:56:01.274Z,43.02
2022-12-31T04:57:01.271Z,43.02
2022-12-31T04:58:01.283Z,43.02
2022-12-31T04:59:01.244Z,43.02
2022-12-31T05:00:01.230Z,42.92
2022-12-31T05:01:01.397Z,42.92
2022-12-31T05:02:01.411Z,42.92
2022-12-31T05:03:01.244Z,43.02
2022-12-31T05:04:01.233Z,42.92
2022-12-31T05:05:01.228Z,43.02
2022-12-31T05:06:01.178Z,42.92
2022-12-31T05:07:01.155Z,42.92
2022-12-31T05:08:01.198Z,42.92
2022-12-31T05:09:01.138Z,42.92
2022-12-31T05:10:01.161Z,42.92
2022-12-31T05:11:01.189Z,42.92
2022-12-31T05:12:01.120Z,42.92
2022-12-31T05:13:01.095Z,42.92
2022-12-31T05:14:01.157Z,42.92
2022-12-31T05:15:01.090Z,42.92
2022-12-31T05:16:01.209Z,42.92
2022-12-31T05:17:01.347Z,42.92
2022-12-31T05:18:01.031Z,42.92
2022-12-31T05:19:01.069Z,42.82
2022-12-31T05:20:01.068Z,42.92
2022-12-31T05:21:01.019Z,42.92
2022-12-31T05:22:01.129Z,42.92
2022-12-31T05:23:00.993Z,42.82
2022-12-31T05:24:00.982Z,42.82
2022-12-31T05:25:01.012Z,42.82
2022-12-31T05:26:00.951Z,42.82
2022-12-31T05:27:01.005Z,42.82
2022-12-31T05:28:01.066Z,42.82
2022-12-31T05:29:00.927Z,42.82
2022-12-31T05:30:01.001Z,42.82
2022-12-31T05:31:00.969Z,42.82
2022-12-31T05:32:00.885Z,42.82
2022-12-31T05:33:00.931Z,42.82
2022-12-31T05:34:00.916Z,42.82
2022-12-31T05:35:00.873Z,42.82
2022-12-31T05:36:00.908Z,42.82
2022-12-31T05:37:00.844Z,42.82
2022-12-31T05:38:00.836Z,42.82
2022-12-31T05:39:00.833Z,42.72
2022-12-31T05:40:00.944Z,42.82
2022-12-31T05:41:00.814Z,42.82
2022-12-31T05:42:00.784Z,42.72
2022-12-31T05:43:00.795Z,42.72
2022-12-31T05:44:00.764Z,42.72
2022-12-31T05:45:00.760Z,42.72
2022-12-31T05:46:00.978Z,42.72
2022-12-31T05:47:00.735Z,42.72
2022-12-31T05:48:00.760Z,42.72
2022-12-31T05:49:00.714Z,42.72
2022-12-31T05:50:00.718Z,42.72
2022-12-31T05:51:00.711Z,42.72
2022-12-31T05:52:00.810Z,42.72
2022-12-31T05:53:00.684Z,42.72
2022-12-31T05:54:00.652Z,42.72
2022-12-31T05:55:00.652Z,42.72
2022-12-31T05:56:00.654Z,42.72
2022-12-31T05:57:00.636Z,42.72
2022-12-31T05:58:00.718Z,42.72
2022-12-31T05:59:00.622Z,42.72
2022-12-31T06:00:00.631Z,42.72
2022-12-31T06:01:00.635Z,42.72
2022-12-31T06:02:00.601Z,42.72
2022-12-31T06:03:00.678Z,42.72
2022-12-31T06:04:00.873Z,42.72
2022-12-31T06:05:00.553Z,42.72
2022-12-31T06:06:00.529Z,42.72
2022-12-31T06:07:00.554Z,42.82
2022-12-31T06:08:00.531Z,42.72
2022-12-31T06:09:00.506Z,42.72
2022-12-31T06:10:00.612Z,42.82
2022-12-31T06:11:00.505Z,42.72
2022-12-31T06:12:00.485Z,42.82
2022-12-31T06:13:00.463Z,42.72
2022-12-31T06:14:00.461Z,42.82
2022-12-31T06:15:00.436Z,42.82
2022-12-31T06:16:00.584Z,42.82
2022-12-31T06:17:00.423Z,42.82
2022-12-31T06:18:00.401Z,42.82
2022-12-31T06:19:00.395Z,42.82
2022-12-31T06:20:01.258Z,42.72
2022-12-31T06:21:00.386Z,42.72
2022-12-31T06:22:00.395Z,42.72
2022-12-31T06:23:00.393Z,42.72
2022-12-31T06:24:00.336Z,42.72
2022-12-31T06:25:00.329Z,42.72
2022-12-31T06:26:00.330Z,42.72
2022-12-31T06:27:00.309Z,42.72
2022-12-31T06:28:00.435Z,42.72
2022-12-31T06:29:00.372Z,42.72
2022-12-31T06:30:00.271Z,42.72
2022-12-31T06:31:00.360Z,42.72
2022-12-31T06:32:00.345Z,42.72
2022-12-31T06:33:00.358Z,42.72
2022-12-31T06:34:00.258Z,42.72
2022-12-31T06:35:00.292Z,42.72
2022-12-31T06:36:00.225Z,42.72
2022-12-31T06:37:00.212Z,42.72
2022-12-31T06:38:00.203Z,42.72
2022-12-31T06:39:00.186Z,42.72
2022-12-31T06:40:00.330Z,42.72
2022-12-31T06:41:00.160Z,42.72
2022-12-31T06:42:00.162Z,42.72
2022-12-31T06:43:00.632Z,42.72
2022-12-31T06:44:00.134Z,42.72
2022-12-31T06:45:00.145Z,42.72
2022-12-31T06:46:00.185Z,42.61
2022-12-31T06:47:00.110Z,42.61
2022-12-31T06:48:00.120Z,42.61
2022-12-31T06:49:00.145Z,42.61
2022-12-31T06:50:00.119Z,42.61
2022-12-31T06:51:00.082Z,42.61
2022-12-31T06:52:00.174Z,42.61
2022-12-31T06:53:00.040Z,42.61
2022-12-31T06:54:00.037Z,42.61
2022-12-31T06:55:00.010Z,42.61
2022-12-31T06:56:00.008Z,42.61
2022-12-31T06:56:59.985Z,42.61
2022-12-31T06:58:00.129Z,42.61
2022-12-31T06:58:59.966Z,42.61
2022-12-31T06:59:59.964Z,42.61
2022-12-31T07:00:59.976Z,42.61
2022-12-31T07:02:00.105Z,42.61
2022-12-31T07:02:59.948Z,42.61
2022-12-31T07:03:59.965Z,42.61
2022-12-31T07:04:59.920Z,42.61
2022-12-31T07:05:59.902Z,42.61
2022-12-31T07:06:59.892Z,42.61
2022-12-31T07:07:59.875Z,42.61
2022-12-31T07:08:59.855Z,42.61
2022-12-31T07:09:59.890Z,42.61
2022-12-31T07:10:59.879Z,42.61
2022-12-31T07:11:59.845Z,42.61
2022-12-31T07:12:59.823Z,42.61
2022-12-31T07:13:59.824Z,42.61
2022-12-31T07:14:59.800Z,42.61
2022-12-31T07:15:59.989Z,42.61
2022-12-31T07:16:59.791Z,42.61
2022-12-31T07:17:59.763Z,42.61
2022-12-31T07:18:59.756Z,42.61
2022-12-31T07:19:59.755Z,42.61
2022-12-31T07:20:59.749Z,42.61
2022-12-31T07:21:59.769Z,42.61
2022-12-31T07:22:59.705Z,42.61
2022-12-31T07:23:59.715Z,42.61
2022-12-31T07:24:59.684Z,42.52
2022-12-31T07:25:59.680Z,42.61
2022-12-31T07:26:59.675Z,42.61
2022-12-31T07:27:59.709Z,42.52
2022-12-31T07:28:59.645Z,42.52
2022-12-31T07:29:59.657Z,42.52
2022-12-31T07:30:59.688Z,42.52
2022-12-31T07:31:59.624Z,42.52
2022-12-31T07:32:59.616Z,42.52
2022-12-31T07:33:59.634Z,42.52
2022-12-31T07:34:59.584Z,42.52
2022-12-31T07:35:59.596Z,42.52
2022-12-31T07:36:59.560Z,42.52
2022-12-31T07:37:59.560Z,42.52
2022-12-31T07:38:59.553Z,42.52
2022-12-31T07:39:59.665Z,42.52
2022-12-31T07:41:02.698Z,42.52
2022-12-31T07:41:59.548Z,42.52
2022-12-31T07:42:59.507Z,42.61
2022-12-31T07:43:59.500Z,42.52
2022-12-31T07:44:59.839Z,42.52
2022-12-31T07:45:59.601Z,42.41
2022-12-31T07:46:59.570Z,42.41
2022-12-31T07:48:02.798Z,42.41
2022-12-31T07:48:59.456Z,42.32
2022-12-31T07:49:59.378Z,42.32
2022-12-31T07:50:59.435Z,42.32
2022-12-31T07:51:59.544Z,42.32
2022-12-31T07:52:59.395Z,42.21
2022-12-31T07:53:59.407Z,42.32
2022-12-31T07:54:59.331Z,42.21
2022-12-31T07:55:59.313Z,42.21
2022-12-31T07:56:59.334Z,42.21
2022-12-31T07:57:59.474Z,42.21
2022-12-31T07:59:01.633Z,42.21
2022-12-31T07:59:59.328Z,42.21
2022-12-31T08:00:59.467Z,42.21
2022-12-31T08:01:59.414Z,42.21
2022-12-31T08:02:59.334Z,42.21
2022-12-31T08:03:59.449Z,42.11
2022-12-31T08:04:59.267Z,42.11
2022-12-31T08:05:59.226Z,42.11
2022-12-31T08:06:59.192Z,42.11
2022-12-31T08:07:59.189Z,42.11
2022-12-31T08:08:59.181Z,42.11
2022-12-31T08:09:59.474Z,42.11
2022-12-31T08:10:59.245Z,42.11
2022-12-31T08:11:59.229Z,42.11
2022-12-31T08:12:59.181Z,42.11
2022-12-31T08:13:59.191Z,42.21
2022-12-31T08:14:59.162Z,42.32
2022-12-31T08:15:59.334Z,42.21
2022-12-31T08:16:59.151Z,42.21
2022-12-31T08:17:59.144Z,42.21
2022-12-31T08:18:59.131Z,42.21
2022-12-31T08:19:59.122Z,42.21
2022-12-31T08:20:59.075Z,42.21
2022-12-31T08:21:59.212Z,42.21
2022-12-31T08:22:59.080Z,42.11
2022-12-31T08:23:59.048Z,42.21
2022-12-31T08:24:59.053Z,42.21
2022-12-31T08:25:59.019Z,42.11
2022-12-31T08:26:58.989Z,42.11
2022-12-31T08:27:59.096Z,42.32
2022-12-31T08:28:58.980Z,42.32
2022-12-31T08:29:58.963Z,42.32
2022-12-31T08:30:58.991Z,42.32
2022-12-31T08:31:59.027Z,42.41
2022-12-31T08:32:59.009Z,42.21
2022-12-31T08:34:03.830Z,42.21
2022-12-31T08:34:58.959Z,42.32
2022-12-31T08:35:58.925Z,42.32
2022-12-31T08:36:58.875Z,42.41
2022-12-31T08:37:58.878Z,42.41
2022-12-31T08:38:58.868Z,42.41
2022-12-31T08:39:59.020Z,42.32
2022-12-31T08:40:58.833Z,42.52
2022-12-31T08:41:58.832Z,42.52
2022-12-31T08:42:58.871Z,42.41
2022-12-31T08:43:58.817Z,42.32
2022-12-31T08:44:58.846Z,42.41
2022-12-31T08:45:58.882Z,42.32
2022-12-31T08:46:58.779Z,42.41
2022-12-31T08:48:00.176Z,42.32
2022-12-31T08:48:58.743Z,42.32
2022-12-31T08:49:58.742Z,42.52
2022-12-31T08:50:58.736Z,42.32
2022-12-31T08:51:58.859Z,42.32
2022-12-31T08:52:58.730Z,42.41
2022-12-31T08:53:58.718Z,42.32
2022-12-31T08:54:58.682Z,42.32
2022-12-31T08:55:58.681Z,42.32
2022-12-31T08:56:58.688Z,42.41
2022-12-31T08:57:58.876Z,42.32
2022-12-31T08:58:58.643Z,42.41
2022-12-31T08:59:58.631Z,42.32
2022-12-31T09:00:58.703Z,42.41
2022-12-31T09:01:58.678Z,42.41
2022-12-31T09:02:58.626Z,42.41
2022-12-31T09:03:58.816Z,42.41
2022-12-31T09:04:58.587Z,42.32
2022-12-31T09:05:58.572Z,42.41
2022-12-31T09:06:58.587Z,42.32
2022-12-31T09:07:58.552Z,42.52
2022-12-31T09:08:58.556Z,42.32
2022-12-31T09:09:58.641Z,42.32
2022-12-31T09:10:58.514Z,42.52
2022-12-31T09:11:58.501Z,42.61
2022-12-31T09:12:58.496Z,42.41
2022-12-31T09:13:58.495Z,42.72
2022-12-31T09:14:58.473Z,42.52
2022-12-31T09:15:58.704Z,42.52
2022-12-31T09:16:58.489Z,42.52
2022-12-31T09:17:58.453Z,42.32
2022-12-31T09:18:58.433Z,42.41
2022-12-31T09:19:58.433Z,42.52
2022-12-31T09:20:58.410Z,42.52
2022-12-31T09:21:58.591Z,42.61
2022-12-31T09:22:58.387Z,42.61
2022-12-31T09:23:58.387Z,42.61
2022-12-31T09:24:58.365Z,42.61
2022-12-31T09:25:58.384Z,42.72
2022-12-31T09:26:58.379Z,42.61
2022-12-31T09:27:58.387Z,42.82
2022-12-31T09:28:58.336Z,42.92
2022-12-31T09:29:58.336Z,42.82
2022-12-31T09:30:58.305Z,42.72
2022-12-31T09:31:58.363Z,42.61
2022-12-31T09:33:01.067Z,42.61
2022-12-31T09:33:58.415Z,42.72
2022-12-31T09:34:58.271Z,42.61
2022-12-31T09:35:58.280Z,42.61
2022-12-31T09:36:58.291Z,42.72
2022-12-31T09:45:31.670Z,63.26
2022-12-31T09:46:32.365Z,68.33
2022-12-31T09:47:32.406Z,72.52
2022-12-31T09:48:32.377Z,75.68
2022-12-31T09:49:33.610Z,78.66
2022-12-31T09:50:32.614Z,81.81
2022-12-31T09:51:32.431Z,83.69
2022-12-31T11:09:02.381Z,92.79
2022-12-31T11:10:03.017Z,92.79
2022-12-31T11:11:05.270Z,92.99
2022-12-31T11:12:03.034Z,92.69
2022-12-31T11:13:02.999Z,92.58
2022-12-31T11:14:03.053Z,92.69
2022-12-31T11:15:02.939Z,92.58
2022-12-31T11:16:03.047Z,92.58
2022-12-31T11:17:02.917Z,92.69
2022-12-31T11:18:02.925Z,92.79
2022-12-31T11:19:02.857Z,93.10
2022-12-31T11:20:02.883Z,93.30
2022-12-31T11:21:03.409Z,93.40
2022-12-31T11:22:02.808Z,93.55
2022-12-31T11:23:02.773Z,93.76
2022-12-31T11:24:02.780Z,93.86
2022-12-31T11:25:02.715Z,94.17
2022-12-31T11:26:02.776Z,94.37
2022-12-31T11:27:02.679Z,94.48
2022-12-31T11:28:02.640Z,94.68
2022-12-31T11:29:02.622Z,94.78
2022-12-31T11:30:02.611Z,95.20
2022-12-31T11:31:05.468Z,95.30
2022-12-31T11:32:02.741Z,95.71
2022-12-31T11:33:02.557Z,95.81
2022-12-31T11:34:02.489Z,95.81
2022-12-31T11:35:02.458Z,95.92
2022-12-31T11:36:02.453Z,95.92
2022-12-31T11:37:02.404Z,95.92
2022-12-31T11:38:02.478Z,95.92
2022-12-31T11:39:02.379Z,95.92
2022-12-31T11:40:02.330Z,95.92
2022-12-31T11:41:02.297Z,96.02
2022-12-31T11:42:02.267Z,96.02
2022-12-31T11:43:02.284Z,96.02
2022-12-31T11:44:02.368Z,96.02
2022-12-31T11:45:02.184Z,95.92
2022-12-31T11:46:02.183Z,95.81
2022-12-31T11:47:02.116Z,95.81
2022-12-31T11:48:29.670Z,95.81
2022-12-31T11:49:02.091Z,95.71
2022-12-31T11:50:02.227Z,95.61
2022-12-31T11:51:02.015Z,95.50
2022-12-31T11:52:02.003Z,95.50
2022-12-31T11:53:01.991Z,95.40
2022-12-31T11:54:02.038Z,95.30
2022-12-31T11:55:01.945Z,95.20
2022-12-31T11:56:01.943Z,95.20
2022-12-31T11:57:01.893Z,95.20
2022-12-31T11:58:01.884Z,95.20
2022-12-31T11:59:06.267Z,95.09
2022-12-31T12:00:01.783Z,95.09
2022-12-31T12:01:01.787Z,95.09
2022-12-31T12:02:01.794Z,95.09
2022-12-31T12:03:01.815Z,95.09
2022-12-31T12:04:01.798Z,95.05
2022-12-31T12:05:06.501Z,94.99
2022-12-31T12:06:01.660Z,94.84
2022-12-31T12:07:01.577Z,94.84
2022-12-31T12:08:01.621Z,94.99
2022-12-31T12:09:01.561Z,94.99
2022-12-31T12:10:01.495Z,95.09
2022-12-31T12:11:01.488Z,95.09
2022-12-31T12:12:01.463Z,95.09
2022-12-31T12:13:01.412Z,95.20
2022-12-31T12:14:01.666Z,95.20
2022-12-31T12:15:01.503Z,95.30
2022-12-31T12:16:01.336Z,95.40
2022-12-31T12:17:05.269Z,95.40
2022-12-31T12:18:01.247Z,95.40
2022-12-31T12:19:01.292Z,95.40
2022-12-31T12:20:01.314Z,95.50
2022-12-31T12:21:01.151Z,95.71
2022-12-31T12:22:01.132Z,95.71
2022-12-31T12:23:01.098Z,95.81
2022-12-31T12:24:01.046Z,95.71
2022-12-31T12:25:01.046Z,95.81
2022-12-31T12:26:01.068Z,95.92
2022-12-31T12:27:00.999Z,96.02
2022-12-31T12:28:00.961Z,96.12
2022-12-31T12:29:00.931Z,96.02
2022-12-31T12:30:00.913Z,96.22
2022-12-31T12:31:01.748Z,96.33
2022-12-31T12:32:01.000Z,96.43
2022-12-31T12:33:00.850Z,96.43
2022-12-31T12:34:00.829Z,96.53
2022-12-31T12:35:00.783Z,96.64
2022-12-31T12:36:00.756Z,96.73
2022-12-31T12:37:00.764Z,96.73
2022-12-31T12:38:00.756Z,96.84
2022-12-31T12:39:00.737Z,96.73
2022-12-31T12:40:01.037Z,96.73
2022-12-31T12:41:00.647Z,96.64
2022-12-31T12:42:00.622Z,96.64
2022-12-31T12:43:00.880Z,96.53
2022-12-31T12:44:00.710Z,96.39
2022-12-31T12:45:00.555Z,96.48
2022-12-31T12:46:00.527Z,96.43
2022-12-31T12:47:00.525Z,96.48
2022-12-31T12:48:00.493Z,96.39
2022-12-31T12:49:00.452Z,96.39
2022-12-31T12:50:00.593Z,96.39
2022-12-31T12:51:00.459Z,96.39
2022-12-31T12:52:00.388Z,96.28
2022-12-31T12:53:00.361Z,96.28
2022-12-31T12:54:00.368Z,96.28
2022-12-31T12:55:00.351Z,96.39
2022-12-31T12:56:00.352Z,96.43
2022-12-31T12:57:00.283Z,96.53
2022-12-31T12:58:00.260Z,96.53
2022-12-31T12:59:00.231Z,96.53
2022-12-31T13:00:00.192Z,96.53
2022-12-31T13:01:00.362Z,96.43
2022-12-31T13:02:00.405Z,96.43
2022-12-31T13:03:00.350Z,96.33
2022-12-31T13:04:33.134Z,96.28
2022-12-31T13:05:00.150Z,96.33
2022-12-31T13:06:00.081Z,96.33
2022-12-31T13:07:00.106Z,96.33
2022-12-31T13:08:00.155Z,96.33
2022-12-31T13:09:00.002Z,96.43
2022-12-31T13:09:59.975Z,96.43
2022-12-31T13:10:59.965Z,96.53
2022-12-31T13:12:05.449Z,96.43
2022-12-31T13:14:00.003Z,96.53
2022-12-31T13:14:59.854Z,96.64
2022-12-31T13:15:59.902Z,96.53
2022-12-31T13:16:59.786Z,96.73
2022-12-31T13:18:01.955Z,96.73
2022-12-31T13:18:59.725Z,96.73
2022-12-31T13:19:59.705Z,96.73
2022-12-31T13:20:59.669Z,96.73
2022-12-31T13:21:59.637Z,96.73
2022-12-31T13:22:59.609Z,96.84
2022-12-31T13:23:59.586Z,96.94
2022-12-31T13:24:59.575Z,97.05
2022-12-31T13:25:59.567Z,97.05
2022-12-31T13:26:59.492Z,97.05
2022-12-31T13:27:59.474Z,97.15
2022-12-31T13:28:59.453Z,97.25
2022-12-31T13:29:59.415Z,97.25
2022-12-31T13:31:06.269Z,97.36
2022-12-31T13:31:59.515Z,97.45
2022-12-31T13:32:59.308Z,97.45
2022-12-31T13:33:59.301Z,97.45
2022-12-31T13:34:59.267Z,97.45
2022-12-31T13:35:59.238Z,97.56
2022-12-31T13:36:59.204Z,97.56
2022-12-31T13:38:05.133Z,97.66
2022-12-31T13:38:59.160Z,97.66
2022-12-31T13:39:59.105Z,97.77
2022-12-31T13:40:59.073Z,97.77
2022-12-31T13:41:59.050Z,97.87
2022-12-31T13:42:59.078Z,97.97
2022-12-31T13:43:59.246Z,98.07
2022-12-31T13:44:58.979Z,98.18
2022-12-31T13:45:59.000Z,98.28
2022-12-31T13:46:58.959Z,98.28
2022-12-31T13:47:58.911Z,98.38
2022-12-31T13:48:58.885Z,98.38
2022-12-31T13:49:59.071Z,98.53
2022-12-31T13:50:58.844Z,98.63
2022-12-31T13:51:58.821Z,98.74
2022-12-31T13:52:58.793Z,98.84
2022-12-31T13:53:58.755Z,98.94
2022-12-31T13:54:58.760Z,99.05
2022-12-31T13:55:58.813Z,99.25
2022-12-31T13:56:58.696Z,99.35
2022-12-31T13:57:58.664Z,99.35
2022-12-31T13:58:58.660Z,99.46
2022-12-31T13:59:58.620Z,99.56
2022-12-31T14:00:58.994Z,99.66
2022-12-31T14:01:58.902Z,99.77
2022-12-31T14:02:58.685Z,99.87
2022-12-31T14:03:58.557Z,99.87
2022-12-31T14:44:17.213Z,99.99
2022-12-31T14:45:15.298Z,99.99
2022-12-31T14:46:15.296Z,99.99
2022-12-31T14:47:15.247Z,99.99
2022-12-31T15:34:34.104Z,99.99
2022-12-31T15:35:34.898Z,99.99
2022-12-31T15:36:34.915Z,99.99
2022-12-31T15:37:34.886Z,99.99
2022-12-31T15:38:34.871Z,99.99
2022-12-31T15:39:34.892Z,99.99
2022-12-31T15:40:34.845Z,99.99
2022-12-31T15:41:34.841Z,99.99
2022-12-31T15:42:39.832Z,99.99